Time;durP1;ratioP1;P1;durP2;ratioP2;P2;SDS_P1;SDS_P2;PMS_P1;PMS_P2;Temp;Humidity;BMP_temperature;BMP_pressure;BME280_temperature;BME280_humidity;BME280_pressure;Samples;Min_cycle;Max_cycle;Signal;HPM_P1;HPM_P2
2022/01/17 00:00:44;;;;;;;6.80;1.30;;;6.50;96.90;;;;;;2084290;28;20133;-88
2022/01/17 00:01:45;;;;;;;4.55;1.23;;;6.50;96.90;;;;;;2073224;28;20038;-88
2022/01/17 00:02:48;;;;;;;3.78;1.30;;;6.50;96.90;;;;;;2084452;28;20033;-89
2022/01/17 00:03:48;;;;;;;3.65;1.20;;;6.50;96.90;;;;;;2084045;28;20091;-88
2022/01/17 00:04:49;;;;;;;5.43;1.30;;;6.50;96.90;;;;;;2076443;28;20112;-89
2022/01/17 00:05:51;;;;;;;4.28;1.38;;;6.50;96.90;;;;;;2073078;28;20038;-88
2022/01/17 00:06:52;;;;;;;4.40;1.20;;;6.50;96.90;;;;;;2057671;28;20062;-88
2022/01/17 00:07:53;;;;;;;4.97;1.50;;;6.50;96.90;;;;;;2068239;28;20057;-88
2022/01/17 00:08:53;;;;;;;5.85;1.58;;;6.50;96.90;;;;;;2081227;28;20034;-88
2022/01/17 00:09:54;;;;;;;5.68;1.70;;;6.50;96.90;;;;;;2081801;28;20040;-88
2022/01/17 00:10:55;;;;;;;5.25;1.55;;;6.50;96.80;;;;;;2073174;28;20396;-88
2022/01/17 00:11:56;;;;;;;6.18;2.17;;;6.50;96.80;;;;;;2088706;28;20064;-89
2022/01/17 00:12:59;;;;;;;5.68;1.75;;;6.50;96.80;;;;;;2089343;28;20040;-88
2022/01/17 00:13:59;;;;;;;4.45;1.70;;;6.50;96.80;;;;;;2079227;28;20173;-88
2022/01/17 00:15:00;;;;;;;5.15;1.98;;;6.50;96.80;;;;;;2081258;28;20101;-88
2022/01/17 00:16:09;;;;;;;6.55;1.77;;;6.50;96.80;;;;;;2081922;28;20367;-89
2022/01/17 00:19:35;;;;;;;5.38;2.08;;;6.50;96.80;;;;;;2081755;28;20079;-89
2022/01/17 00:20:36;;;;;;;4.85;2.20;;;6.50;96.80;;;;;;2081123;28;20057;-88
2022/01/17 00:21:41;;;;;;;5.28;1.98;;;6.50;96.80;;;;;;2089264;28;20464;-88
2022/01/17 00:22:41;;;;;;;6.47;2.47;;;6.50;96.80;;;;;;2073026;28;20497;-88
2022/01/17 00:23:42;;;;;;;4.35;2.10;;;6.50;96.80;;;;;;2063108;28;20038;-88
2022/01/17 00:24:43;;;;;;;6.03;2.67;;;6.50;96.80;;;;;;2063383;28;20517;-89
2022/01/17 00:25:44;;;;;;;8.25;2.60;;;6.50;96.80;;;;;;2089642;28;20503;-88
2022/01/17 00:26:47;;;;;;;6.00;2.60;;;6.50;96.80;;;;;;2096589;28;20032;-88
2022/01/17 00:27:48;;;;;;;7.88;2.75;;;6.50;96.80;;;;;;2091233;28;20029;-89
2022/01/17 00:28:49;;;;;;;6.55;2.65;;;6.50;96.80;;;;;;2076121;28;20038;-89
2022/01/17 00:29:49;;;;;;;8.45;2.50;;;6.50;96.80;;;;;;2076254;28;20038;-88
2022/01/17 00:30:50;;;;;;;8.48;2.65;;;6.50;97.10;;;;;;2084027;28;20543;-88
2022/01/17 00:31:51;;;;;;;7.28;2.67;;;6.50;96.80;;;;;;2100776;28;20044;-88
2022/01/17 00:32:51;;;;;;;6.03;2.67;;;6.50;96.80;;;;;;2088023;28;20037;-88
2022/01/17 00:33:52;;;;;;;7.00;2.97;;;6.50;96.80;;;;;;2081617;28;20063;-88
2022/01/17 00:34:53;;;;;;;5.07;2.28;;;6.50;96.80;;;;;;2085248;28;20403;-88
2022/01/17 00:35:53;;;;;;;7.38;2.55;;;6.50;96.80;;;;;;2088784;28;20506;-89
2022/01/17 00:36:54;;;;;;;5.72;2.58;;;6.50;96.80;;;;;;2089886;28;20040;-89
2022/01/17 00:37:55;;;;;;;7.60;2.70;;;6.50;96.80;;;;;;2089397;28;20100;-88
2022/01/17 00:38:55;;;;;;;4.88;2.13;;;6.50;96.80;;;;;;2073889;28;20049;-87
2022/01/17 00:39:56;;;;;;;8.85;2.70;;;6.50;96.80;;;;;;2071244;28;20081;-88
2022/01/17 00:40:57;;;;;;;7.18;2.65;;;6.50;96.80;;;;;;2090677;28;20039;-88
2022/01/17 00:41:57;;;;;;;7.38;2.67;;;6.50;96.80;;;;;;2075832;28;20071;-88
2022/01/17 00:42:58;;;;;;;5.45;2.30;;;6.50;96.80;;;;;;2080954;28;20107;-88
2022/01/17 00:43:59;;;;;;;6.93;2.20;;;6.50;96.80;;;;;;2076237;28;20038;-88
2022/01/17 00:45:02;;;;;;;5.70;2.33;;;6.50;96.80;;;;;;2076196;28;20525;-88
2022/01/17 00:46:03;;;;;;;6.40;2.50;;;6.50;96.80;;;;;;2080720;28;20042;-88
2022/01/17 00:47:05;;;;;;;5.82;2.50;;;6.50;96.70;;;;;;2073013;28;20038;-89
2022/01/17 00:48:05;;;;;;;6.45;2.47;;;6.50;96.70;;;;;;2075005;28;20088;-88
2022/01/17 00:49:06;;;;;;;9.25;2.83;;;6.50;96.70;;;;;;2081669;28;20090;-88
2022/01/17 00:50:07;;;;;;;6.45;2.70;;;6.50;96.70;;;;;;2080761;28;23019;-88
2022/01/17 00:51:08;;;;;;;6.72;2.50;;;6.60;96.70;;;;;;2068172;28;20045;-89
2022/01/17 00:52:09;;;;;;;6.93;2.55;;;6.50;96.70;;;;;;2080981;28;20034;-88
2022/01/17 00:53:10;;;;;;;6.13;2.40;;;6.50;96.70;;;;;;2074554;28;20591;-88
2022/01/17 00:54:10;;;;;;;7.75;2.83;;;6.60;96.70;;;;;;2076943;28;20132;-89
2022/01/17 00:55:11;;;;;;;7.10;2.70;;;6.50;96.70;;;;;;2080298;28;20100;-88
2022/01/17 00:56:11;;;;;;;5.22;2.08;;;6.50;96.70;;;;;;2080738;28;20029;-88
2022/01/17 00:57:12;;;;;;;4.90;2.28;;;6.50;96.70;;;;;;2086181;28;20099;-88
2022/01/17 00:58:13;;;;;;;6.97;2.40;;;6.50;96.70;;;;;;2089703;28;20123;-89
2022/01/17 00:59:13;;;;;;;6.07;2.15;;;6.50;96.70;;;;;;2078879;28;20037;-88
2022/01/17 01:00:15;;;;;;;7.25;2.72;;;6.50;96.70;;;;;;2078942;28;20033;-88
2022/01/17 01:01:16;;;;;;;6.70;2.70;;;6.50;96.70;;;;;;2081990;28;20029;-88
2022/01/17 01:02:17;;;;;;;7.10;2.35;;;6.50;96.70;;;;;;2082376;28;20045;-88
2022/01/17 01:03:17;;;;;;;5.43;2.30;;;6.50;96.70;;;;;;2081338;28;20052;-88
2022/01/17 01:04:18;;;;;;;6.88;2.33;;;6.50;96.70;;;;;;2088480;28;20153;-89
2022/01/17 01:05:19;;;;;;;5.32;2.30;;;6.50;96.70;;;;;;2074167;28;20030;-89
2022/01/17 01:06:20;;;;;;;6.32;2.30;;;6.50;96.70;;;;;;2072962;28;20488;-88
2022/01/17 01:07:20;;;;;;;9.13;2.20;;;6.50;96.70;;;;;;2081988;28;20030;-88
2022/01/17 01:08:21;;;;;;;8.00;2.22;;;6.50;96.70;;;;;;2075922;28;20464;-88
2022/01/17 01:09:23;;;;;;;6.28;2.33;;;6.50;96.70;;;;;;2078990;28;20064;-88
2022/01/17 01:10:24;;;;;;;6.88;2.20;;;6.50;96.60;;;;;;2087228;28;20422;-88
2022/01/17 01:11:25;;;;;;;6.22;2.20;;;6.50;96.60;;;;;;2082278;28;20044;-88
2022/01/17 01:12:25;;;;;;;5.47;2.10;;;6.50;96.60;;;;;;2080014;28;20485;-88
2022/01/17 01:13:29;;;;;;;8.10;2.25;;;6.50;96.60;;;;;;2090792;28;20056;-89
2022/01/17 01:14:29;;;;;;;6.32;2.08;;;6.50;96.60;;;;;;2087117;28;20052;-88
2022/01/17 01:15:46;;;;;;;4.32;1.83;;;6.50;96.80;;;;;;2073268;28;20026;-88
2022/01/17 01:16:46;;;;;;;4.45;1.90;;;6.50;96.60;;;;;;2080350;28;20482;-88
2022/01/17 01:17:53;;;;;;;8.60;2.30;;;6.50;96.60;;;;;;2074217;28;20112;-88
2022/01/17 01:20:03;;;;;;;5.50;1.95;;;6.50;96.50;;;;;;2083132;28;20148;-87
2022/01/17 01:27:43;;;;;;;5.57;1.77;;;6.40;96.40;;;;;;2087799;28;20040;-88
2022/01/17 01:28:44;;;;;;;6.53;1.80;;;6.50;96.40;;;;;;2089439;28;20097;-89
2022/01/17 01:29:55;;;;;;;8.45;2.40;;;6.40;96.70;;;;;;2082214;28;20026;-88
2022/01/17 01:30:57;;;;;;;;;;;6.40;96.40;;;;;;2080902;28;20447;-88
2022/01/17 01:32:03;;;;;;;7.40;1.70;;;6.50;96.40;;;;;;2089513;28;19986;-88
2022/01/17 01:33:03;;;;;;;7.80;1.65;;;6.40;96.40;;;;;;2090263;28;20127;-88
2022/01/17 01:34:06;;;;;;;5.35;1.63;;;6.40;96.40;;;;;;2091243;28;20052;-89
2022/01/17 01:35:10;;;;;;;7.50;1.70;;;6.40;96.30;;;;;;2086761;28;20415;-88
2022/01/17 01:36:19;;;;;;;5.90;1.85;;;6.40;96.30;;;;;;2082933;28;20048;-87
2022/01/17 01:37:20;;;;;;;5.20;1.50;;;6.40;96.40;;;;;;2065944;28;20098;-88
2022/01/17 01:38:21;;;;;;;4.18;1.58;;;6.40;96.30;;;;;;2074805;28;20058;-89
2022/01/17 01:39:24;;;;;;;6.05;1.48;;;6.40;96.30;;;;;;2081311;28;20046;-88
2022/01/17 01:40:24;;;;;;;4.63;1.40;;;6.40;96.30;;;;;;2074391;28;20048;-88
2022/01/17 01:41:25;;;;;;;6.28;1.33;;;6.40;96.30;;;;;;2079472;28;20029;-88
2022/01/17 01:42:29;;;;;;;5.25;1.50;;;6.40;96.30;;;;;;2079077;28;20434;-88
2022/01/17 01:43:29;;;;;;;5.88;1.48;;;6.40;96.30;;;;;;2085464;28;20029;-88
2022/01/17 01:44:31;;;;;;;4.57;1.30;;;6.40;96.30;;;;;;2089299;28;20053;-88
2022/01/17 01:45:36;;;;;;;4.97;1.35;;;6.40;96.20;;;;;;2089218;28;20090;-88
2022/01/17 01:46:37;;;;;;;5.38;1.48;;;6.40;96.20;;;;;;2074193;28;20033;-88
2022/01/17 01:47:38;;;;;;;7.22;1.50;;;6.40;96.20;;;;;;2074159;28;20044;-88
2022/01/17 01:48:40;;;;;;;6.07;1.33;;;6.30;96.20;;;;;;2088646;28;20495;-88
2022/01/17 01:49:40;;;;;;;3.83;1.17;;;6.40;96.20;;;;;;2087266;28;20410;-88
2022/01/17 01:50:41;;;;;;;6.97;1.52;;;6.40;96.20;;;;;;2077449;28;20126;-88
2022/01/17 01:51:43;;;;;;;4.65;1.13;;;6.30;96.20;;;;;;2082231;28;20503;-89
2022/01/17 01:52:43;;;;;;;4.22;1.45;;;6.30;96.10;;;;;;2082118;28;20033;-88
2022/01/17 01:53:44;;;;;;;6.63;1.27;;;6.30;96.10;;;;;;2065927;28;20035;-88
2022/01/17 01:54:45;;;;;;;5.22;1.17;;;6.40;96.10;;;;;;2066696;28;20035;-88
2022/01/17 01:55:45;;;;;;;5.88;1.10;;;6.30;96.10;;;;;;2066136;28;20030;-88
2022/01/17 01:56:48;;;;;;;5.55;1.00;;;6.30;96.10;;;;;;2066073;28;20093;-88
2022/01/17 01:57:50;;;;;;;3.95;0.95;;;6.30;96.00;;;;;;2074377;28;20034;-88
2022/01/17 01:58:50;;;;;;;4.65;1.10;;;6.30;96.00;;;;;;2080342;28;20029;-89
2022/01/17 01:59:52;;;;;;;7.13;1.23;;;6.30;96.00;;;;;;2081764;28;20057;-88
2022/01/17 02:00:54;;;;;;;5.55;1.00;;;6.30;96.00;;;;;;2074734;28;20030;-88
2022/01/17 02:01:55;;;;;;;8.85;1.15;;;6.30;96.00;;;;;;2065779;28;20046;-89
2022/01/17 02:02:56;;;;;;;3.58;0.82;;;6.30;95.90;;;;;;2057806;28;20053;-89
2022/01/17 02:03:56;;;;;;;6.00;1.20;;;6.30;95.90;;;;;;2066110;28;20118;-88
2022/01/17 02:04:57;;;;;;;3.95;0.90;;;6.30;95.90;;;;;;2077587;28;20034;-88
2022/01/17 02:05:58;;;;;;;6.00;1.10;;;6.30;95.90;;;;;;2065861;28;20042;-89
2022/01/17 02:06:58;;;;;;;4.63;0.98;;;6.30;96.10;;;;;;2060675;28;20457;-88
2022/01/17 02:07:59;;;;;;;5.70;0.80;;;6.30;95.90;;;;;;2077441;28;20069;-88
2022/01/17 02:09:05;;;;;;;4.80;0.98;;;6.30;95.80;;;;;;2089294;28;20544;-88
2022/01/17 02:10:06;;;;;;;6.03;0.93;;;6.30;95.80;;;;;;2073455;28;20476;-88
2022/01/17 02:11:10;;;;;;;4.47;0.95;;;6.30;95.80;;;;;;2055955;28;20043;-88
2022/01/17 02:12:11;;;;;;;4.32;0.90;;;6.30;95.80;;;;;;2067787;28;20516;-89
2022/01/17 02:13:12;;;;;;;4.95;0.77;;;6.30;95.80;;;;;;2074774;28;20073;-88
2022/01/17 02:14:12;;;;;;;4.97;1.30;;;6.30;95.80;;;;;;2080936;28;20034;-89
2022/01/17 02:15:15;;;;;;;5.22;0.68;;;6.30;95.80;;;;;;2079018;28;20550;-88
2022/01/17 02:16:16;;;;;;;5.55;1.13;;;6.30;95.70;;;;;;2071690;28;20442;-88
2022/01/17 02:17:20;;;;;;;6.32;0.90;;;6.30;95.70;;;;;;2073940;28;20647;-88
2022/01/17 02:18:29;;;;;;;6.30;0.98;;;6.30;95.70;;;;;;2073985;28;20073;-88
2022/01/17 02:19:31;;;;;;;5.93;1.08;;;6.30;95.70;;;;;;2074643;28;20048;-88
2022/01/17 02:21:47;;;;;;;3.58;0.75;;;6.20;95.70;;;;;;2072306;28;20044;-89
2022/01/17 02:22:50;;;;;;;6.22;1.00;;;6.30;95.70;;;;;;2076652;28;20488;-89
2022/01/17 02:23:52;;;;;;;3.50;0.60;;;6.30;95.70;;;;;;2082717;28;20037;-88
2022/01/17 02:24:53;;;;;;;5.60;1.05;;;6.20;95.70;;;;;;2081751;28;20092;-89
2022/01/17 02:25:55;;;;;;;5.63;0.90;;;6.20;95.70;;;;;;2073607;28;20491;-88
2022/01/17 02:26:56;;;;;;;4.85;1.10;;;6.20;95.70;;;;;;2065741;28;20322;-88
2022/01/17 02:27:57;;;;;;;3.40;1.05;;;6.20;95.70;;;;;;2074058;28;20114;-88
2022/01/17 02:28:58;;;;;;;6.07;0.75;;;6.20;95.70;;;;;;2076068;28;20042;-88
2022/01/17 02:29:58;;;;;;;6.88;1.08;;;6.20;95.70;;;;;;2073874;28;20092;-88
2022/01/17 02:31:08;;;;;;;4.70;0.70;;;6.20;95.70;;;;;;2073515;28;20385;-87
2022/01/17 02:32:09;;;;;;;4.93;0.73;;;6.20;95.60;;;;;;2074659;28;20117;-88
2022/01/17 02:33:09;;;;;;;4.88;0.65;;;6.20;95.60;;;;;;2074458;28;20038;-88
2022/01/17 02:34:11;;;;;;;5.15;0.80;;;6.20;95.60;;;;;;2074364;28;20046;-88
2022/01/17 02:35:14;;;;;;;6.03;0.85;;;6.20;95.60;;;;;;2077635;28;20080;-88
2022/01/17 02:36:15;;;;;;;7.65;1.05;;;6.20;95.60;;;;;;2082360;28;20044;-88
2022/01/17 02:37:18;;;;;;;4.95;1.00;;;6.20;95.60;;;;;;2080203;28;20037;-89
2022/01/17 02:38:19;;;;;;;4.47;0.73;;;6.20;95.60;;;;;;2069772;28;20512;-89
2022/01/17 02:39:19;;;;;;;5.88;0.80;;;6.20;95.60;;;;;;2064687;28;20133;-88
2022/01/17 02:40:21;;;;;;;4.22;0.70;;;6.20;95.80;;;;;;2057614;28;20031;-88
2022/01/17 02:41:22;;;;;;;4.55;0.70;;;6.20;95.60;;;;;;2057570;28;20041;-89
2022/01/17 02:42:26;;;;;;;4.15;0.70;;;6.10;95.80;;;;;;2071687;28;20042;-88
2022/01/17 02:43:27;;;;;;;3.67;0.80;;;6.10;95.50;;;;;;2081770;28;20076;-88
2022/01/17 02:44:28;;;;;;;6.75;0.75;;;6.10;95.50;;;;;;2073100;28;20096;-88
2022/01/17 02:45:32;;;;;;;5.97;1.02;;;6.10;95.50;;;;;;2062328;28;20085;-87
2022/01/17 02:46:33;;;;;;;3.83;0.70;;;6.20;95.50;;;;;;2069915;28;20102;-89
2022/01/17 02:47:34;;;;;;;6.32;0.60;;;6.20;95.50;;;;;;2063710;28;20398;-89
2022/01/17 02:48:38;;;;;;;3.42;0.60;;;6.10;95.40;;;;;;2064313;28;20046;-89
2022/01/17 02:49:39;;;;;;;4.57;0.80;;;6.20;95.40;;;;;;2080386;28;20053;-89
2022/01/17 02:50:41;;;;;;;3.33;0.60;;;6.20;95.40;;;;;;2088431;28;20044;-89
2022/01/17 02:51:47;;;;;;;3.53;0.93;;;6.10;95.40;;;;;;2081718;28;20128;-89
2022/01/17 02:52:48;;;;;;;6.45;0.75;;;6.20;95.40;;;;;;2074325;28;20042;-88
2022/01/17 02:53:49;;;;;;;3.90;0.70;;;6.20;95.30;;;;;;2073788;28;20513;-88
2022/01/17 02:54:50;;;;;;;3.40;0.68;;;6.20;95.30;;;;;;2066997;28;20495;-89
2022/01/17 02:55:52;;;;;;;2.75;0.77;;;6.10;95.30;;;;;;2079727;28;20037;-88
2022/01/17 02:56:52;;;;;;;4.20;0.80;;;6.20;95.30;;;;;;2073716;28;20038;-88
2022/01/17 02:57:53;;;;;;;4.60;0.80;;;6.20;95.30;;;;;;2077614;28;20049;-88
2022/01/17 02:58:54;;;;;;;4.55;0.70;;;6.20;95.30;;;;;;2082513;28;20045;-89
2022/01/17 02:59:55;;;;;;;2.83;0.68;;;6.20;95.30;;;;;;2082445;28;20057;-89
2022/01/17 03:00:58;;;;;;;3.47;0.70;;;6.20;95.30;;;;;;2079041;28;20045;-89
2022/01/17 03:01:59;;;;;;;6.07;0.77;;;6.20;95.30;;;;;;2082015;28;20029;-88
2022/01/17 03:03:00;;;;;;;3.47;0.68;;;6.20;95.30;;;;;;2078836;28;20455;-88
2022/01/17 03:04:01;;;;;;;2.88;0.65;;;6.20;95.30;;;;;;2076088;28;20069;-88
2022/01/17 03:05:02;;;;;;;6.70;0.90;;;6.20;95.30;;;;;;2093115;28;20091;-88
2022/01/17 03:06:03;;;;;;;4.55;0.65;;;6.10;95.20;;;;;;2089975;28;20037;-89
2022/01/17 03:07:03;;;;;;;6.88;0.93;;;6.20;95.20;;;;;;2073864;28;20550;-88
2022/01/17 03:08:04;;;;;;;6.82;0.88;;;6.20;95.20;;;;;;2081642;28;20038;-88
2022/01/17 03:09:05;;;;;;;7.78;1.00;;;6.10;95.20;;;;;;2087348;28;20171;-88
2022/01/17 03:10:11;;;;;;;4.68;1.13;;;6.10;95.20;;;;;;2091552;28;20049;-88
2022/01/17 03:11:25;;;;;;;3.80;0.77;;;6.10;95.20;;;;;;2075674;28;20026;-88
2022/01/17 03:12:26;;;;;;;4.78;0.80;;;6.10;95.20;;;;;;2078156;28;20399;-89
2022/01/17 03:13:33;;;;;;;3.30;0.73;;;6.10;95.20;;;;;;2081729;28;20076;-89
2022/01/17 03:14:34;;;;;;;4.40;0.75;;;6.10;95.20;;;;;;2075482;28;20542;-88
2022/01/17 03:15:35;;;;;;;4.63;0.88;;;6.10;95.20;;;;;;2085080;28;20068;-89
2022/01/17 03:16:41;;;;;;;4.95;0.90;;;6.10;95.20;;;;;;2073305;28;20053;-89
2022/01/17 03:17:42;;;;;;;6.47;0.90;;;6.10;95.20;;;;;;2074777;28;20100;-88
2022/01/17 03:18:50;;;;;;;4.85;0.80;;;6.00;95.20;;;;;;2082379;28;20575;-88
2022/01/17 03:19:50;;;;;;;5.47;0.88;;;6.10;95.20;;;;;;2089905;28;20079;-88
2022/01/17 03:20:51;;;;;;;4.80;0.93;;;6.00;95.20;;;;;;2081029;28;20030;-88
2022/01/17 03:21:52;;;;;;;5.57;0.70;;;6.00;95.20;;;;;;2072135;28;20666;-88
2022/01/17 03:22:54;;;;;;;5.15;0.85;;;6.00;95.20;;;;;;2078661;28;20116;-88
2022/01/17 03:23:55;;;;;;;4.40;1.02;;;6.00;95.20;;;;;;2090149;28;20033;-88
2022/01/17 03:24:56;;;;;;;5.80;0.90;;;6.00;95.20;;;;;;2087276;28;20499;-89
2022/01/17 03:25:57;;;;;;;4.78;1.02;;;6.00;95.20;;;;;;2081625;28;20052;-89
2022/01/17 03:26:57;;;;;;;4.10;0.70;;;6.00;95.20;;;;;;2089925;28;20024;-88
2022/01/17 03:27:59;;;;;;;5.68;0.70;;;6.00;95.20;;;;;;2079014;28;20065;-89
2022/01/17 03:29:01;;;;;;;4.30;0.60;;;6.00;95.20;;;;;;2070920;28;20041;-89
2022/01/17 03:30:02;;;;;;;5.22;0.70;;;5.90;95.20;;;;;;2073498;28;20124;-89
2022/01/17 03:31:03;;;;;;;4.50;0.65;;;5.90;95.20;;;;;;2073602;28;20049;-88
2022/01/17 03:32:04;;;;;;;3.88;0.60;;;5.90;95.20;;;;;;2073927;28;20093;-88
2022/01/17 03:33:10;;;;;;;5.57;0.93;;;5.80;95.20;;;;;;2074196;28;20046;-88
2022/01/17 03:34:11;;;;;;;5.45;0.93;;;5.80;95.20;;;;;;2081187;28;20034;-89
2022/01/17 03:35:12;;;;;;;4.30;0.60;;;5.80;95.30;;;;;;2090391;28;20044;-88
2022/01/17 03:36:12;;;;;;;5.25;0.90;;;5.80;95.30;;;;;;2073201;28;20065;-89
2022/01/17 03:37:13;;;;;;;4.43;0.98;;;5.80;95.30;;;;;;2073666;28;20069;-89
2022/01/17 03:38:18;;;;;;;5.43;0.90;;;5.80;95.30;;;;;;2073424;28;20034;-88
2022/01/17 03:39:18;;;;;;;4.78;0.77;;;5.80;95.60;;;;;;2065163;28;20023;-88
2022/01/17 03:40:19;;;;;;;4.78;0.90;;;5.70;95.30;;;;;;2080774;28;20068;-88
2022/01/17 03:41:20;;;;;;;7.50;0.95;;;5.70;95.30;;;;;;2081471;28;20068;-89
2022/01/17 03:42:22;;;;;;;4.68;0.70;;;5.70;95.30;;;;;;2079327;28;20052;-88
2022/01/17 03:43:24;;;;;;;3.33;0.70;;;5.60;95.30;;;;;;2081442;28;20136;-88
2022/01/17 03:44:24;;;;;;;4.30;0.60;;;5.60;95.30;;;;;;2087841;28;20371;-87
2022/01/17 03:45:25;;;;;;;2.85;0.50;;;5.60;95.30;;;;;;2086113;28;20033;-88
2022/01/17 03:46:26;;;;;;;5.28;0.68;;;5.60;95.40;;;;;;2090289;28;20045;-88
2022/01/17 03:47:27;;;;;;;5.35;0.80;;;5.60;95.40;;;;;;2089861;28;20067;-88
2022/01/17 03:48:29;;;;;;;3.83;0.90;;;5.60;95.40;;;;;;2075724;28;20038;-89
2022/01/17 03:49:30;;;;;;;7.28;1.00;;;5.60;95.40;;;;;;2084967;28;20033;-88
2022/01/17 03:50:31;;;;;;;5.32;0.90;;;5.60;95.40;;;;;;2074993;28;20033;-88
2022/01/17 03:51:32;;;;;;;7.03;1.05;;;5.60;95.40;;;;;;2068829;28;20468;-88
2022/01/17 03:52:32;;;;;;;4.00;0.68;;;5.50;95.40;;;;;;2083513;28;20036;-89
2022/01/17 03:53:40;;;;;;;4.82;0.90;;;5.50;95.40;;;;;;2099734;27;20374;-87
2022/01/17 03:54:40;;;;;;;4.75;0.80;;;5.50;95.40;;;;;;2096831;28;20379;-87
2022/01/17 03:55:41;;;;;;;3.78;0.77;;;5.50;95.40;;;;;;2091394;28;20495;-87
2022/01/17 03:56:42;;;;;;;5.45;0.77;;;5.50;95.70;;;;;;2088285;28;20025;-86
2022/01/17 03:57:44;;;;;;;4.63;0.70;;;5.50;95.40;;;;;;2100932;28;20536;-87
2022/01/17 03:58:45;;;;;;;3.30;0.60;;;5.50;95.40;;;;;;2105571;28;20024;-87
2022/01/17 03:59:46;;;;;;;5.50;0.77;;;5.50;95.40;;;;;;2105004;28;20021;-87
2022/01/17 04:00:48;;;;;;;7.47;1.10;;;5.50;95.40;;;;;;2104929;28;20024;-86
2022/01/17 04:01:48;;;;;;;4.53;0.80;;;5.50;95.40;;;;;;2112853;28;20023;-87
2022/01/17 04:02:51;;;;;;;5.63;0.80;;;5.50;95.40;;;;;;2089534;28;20029;-87
2022/01/17 04:03:51;;;;;;;4.30;0.77;;;5.50;95.40;;;;;;2088068;28;20060;-87
2022/01/17 04:04:52;;;;;;;6.22;1.45;;;5.40;95.40;;;;;;2101355;28;20494;-87
2022/01/17 04:05:53;;;;;;;6.60;0.90;;;5.40;95.40;;;;;;2103922;28;20511;-87
2022/01/17 04:06:54;;;;;;;4.20;0.80;;;5.40;95.40;;;;;;2087275;28;20018;-87
2022/01/17 04:07:55;;;;;;;5.90;0.80;;;5.40;95.40;;;;;;2088489;28;20034;-86
2022/01/17 04:08:55;;;;;;;2.83;0.80;;;5.40;95.40;;;;;;2096358;28;20032;-87
2022/01/17 04:09:56;;;;;;;7.25;1.15;;;5.40;95.40;;;;;;2096555;28;20036;-86
2022/01/17 04:10:57;;;;;;;5.68;0.70;;;5.40;95.40;;;;;;2105445;28;20056;-87
2022/01/17 04:11:57;;;;;;;7.68;1.10;;;5.40;95.40;;;;;;2099809;28;20063;-87
2022/01/17 04:13:03;;;;;;;5.97;0.90;;;5.40;95.40;;;;;;2096189;28;20044;-87
2022/01/17 04:14:10;;;;;;;5.35;0.80;;;5.30;95.40;;;;;;2096462;28;20025;-87
2022/01/17 04:15:12;;;;;;;6.18;0.73;;;5.40;95.40;;;;;;2100214;28;20031;-87
2022/01/17 04:16:13;;;;;;;4.30;0.75;;;5.30;95.40;;;;;;2097461;28;20028;-87
2022/01/17 04:17:14;;;;;;;4.22;0.80;;;5.30;95.40;;;;;;2108244;28;20052;-87
2022/01/17 04:18:15;;;;;;;6.05;0.80;;;5.30;95.40;;;;;;2104476;28;20025;-87
2022/01/17 04:19:18;;;;;;;3.65;0.73;;;5.30;95.40;;;;;;2088303;28;20028;-86
2022/01/17 04:20:26;;;;;;;4.72;0.80;;;5.30;95.40;;;;;;2101446;28;20021;-87
2022/01/17 04:21:32;;;;;;;6.78;0.75;;;5.30;95.50;;;;;;2105447;28;20457;-87
2022/01/17 04:22:36;;;;;;;5.95;1.00;;;5.30;95.50;;;;;;2094029;28;20082;-87
2022/01/17 04:23:37;;;;;;;4.55;0.90;;;5.20;95.40;;;;;;2105346;28;20032;-87
2022/01/17 04:24:38;;;;;;;4.97;0.70;;;5.20;95.40;;;;;;2094706;28;20028;-87
2022/01/17 04:25:41;;;;;;;5.82;0.93;;;5.20;95.40;;;;;;2087858;28;20025;-87
2022/01/17 04:26:42;;;;;;;4.68;0.80;;;5.20;95.50;;;;;;2114941;28;20020;-87
2022/01/17 04:27:43;;;;;;;3.05;0.70;;;5.30;95.50;;;;;;2105164;28;20039;-87
2022/01/17 04:28:44;;;;;;;4.57;0.93;;;5.20;95.50;;;;;;2104251;28;20064;-87
2022/01/17 04:29:44;;;;;;;4.97;1.23;;;5.20;95.40;;;;;;2104692;28;20097;-87
2022/01/17 04:30:45;;;;;;;3.42;0.70;;;5.30;95.50;;;;;;2112113;28;20522;-87
2022/01/17 04:31:46;;;;;;;2.30;0.60;;;5.20;95.40;;;;;;2113048;28;20028;-87
2022/01/17 04:32:48;;;;;;;5.60;0.98;;;5.30;95.50;;;;;;2096030;28;20029;-87
2022/01/17 04:33:49;;;;;;;4.07;0.75;;;5.30;95.40;;;;;;2085019;28;20032;-87
2022/01/17 04:34:50;;;;;;;3.17;0.70;;;5.20;95.40;;;;;;2091925;28;20021;-87
2022/01/17 04:35:50;;;;;;;4.40;1.02;;;5.30;95.40;;;;;;2102814;28;20071;-87
2022/01/17 04:36:51;;;;;;;5.20;1.00;;;5.30;95.40;;;;;;2089105;28;20395;-86
2022/01/17 04:37:55;;;;;;;4.13;0.90;;;5.30;95.40;;;;;;2104197;28;20140;-87
2022/01/17 04:38:56;;;;;;;5.55;0.75;;;5.30;95.40;;;;;;2099736;28;20033;-87
2022/01/17 04:39:56;;;;;;;5.07;1.05;;;5.30;95.40;;;;;;2088406;28;20122;-87
2022/01/17 04:41:03;;;;;;;5.38;0.80;;;5.40;95.40;;;;;;2095389;28;20514;-87
2022/01/17 04:42:11;;;;;;;7.28;0.80;;;5.30;95.40;;;;;;2093246;28;20384;-87
2022/01/17 04:43:55;;;;;;;4.38;0.88;;;5.40;95.40;;;;;;2090970;28;20029;-87
2022/01/17 04:45:15;;;;;;;5.32;0.70;;;5.40;95.30;;;;;;2102213;28;20020;-87
2022/01/17 04:46:16;;;;;;;3.55;0.60;;;5.40;95.30;;;;;;2103558;28;20035;-87
2022/01/17 04:47:16;;;;;;;6.80;0.98;;;5.40;95.30;;;;;;2102058;28;20028;-87
2022/01/17 04:48:17;;;;;;;4.75;0.77;;;5.40;95.30;;;;;;2094632;28;20030;-87
2022/01/17 04:49:18;;;;;;;4.88;0.88;;;5.40;95.30;;;;;;2088076;28;20108;-87
2022/01/17 04:50:22;;;;;;;6.80;1.33;;;5.40;95.30;;;;;;2090930;28;20120;-87
2022/01/17 04:51:23;;;;;;;8.95;1.40;;;5.40;95.60;;;;;;2080464;28;20029;-87
2022/01/17 04:52:25;;;;;;;3.70;0.60;;;5.40;95.30;;;;;;2096025;28;20530;-87
2022/01/17 04:53:27;;;;;;;5.80;0.82;;;5.40;95.30;;;;;;2090070;28;20041;-87
2022/01/17 04:55:14;;;;;;;4.72;0.70;;;5.40;95.30;;;;;;2088204;28;20166;-87
2022/01/17 04:55:49;;;;;;;;;;;5.40;95.30;;;;;;2090577;28;20132;-86
2022/01/17 04:56:49;;;;;;;6.20;0.70;;;5.40;95.20;;;;;;2089813;28;19909;-87
2022/01/17 04:57:51;;;;;;;4.65;0.82;;;5.40;95.20;;;;;;2090983;28;20017;-87
2022/01/17 04:58:51;;;;;;;6.72;0.90;;;5.40;95.20;;;;;;2087616;28;20572;-87
2022/01/17 04:59:52;;;;;;;4.30;0.88;;;5.40;95.20;;;;;;2104042;28;20028;-87
2022/01/17 05:00:53;;;;;;;3.55;0.95;;;5.40;95.20;;;;;;2104611;28;20397;-87
2022/01/17 05:01:54;;;;;;;5.10;1.00;;;5.40;95.30;;;;;;2095962;28;20053;-87
2022/01/17 05:02:55;;;;;;;3.58;0.70;;;5.40;95.30;;;;;;2087768;28;20450;-86
2022/01/17 05:03:55;;;;;;;3.47;0.80;;;5.40;95.30;;;;;;2087403;28;20022;-87
2022/01/17 05:04:56;;;;;;;5.75;0.93;;;5.40;95.30;;;;;;2080045;28;20033;-87
2022/01/17 05:05:56;;;;;;;6.50;0.80;;;5.40;95.30;;;;;;2090547;28;20368;-87
2022/01/17 05:06:57;;;;;;;3.50;0.60;;;5.50;95.30;;;;;;2089760;28;20324;-87
2022/01/17 05:07:58;;;;;;;2.20;0.60;;;5.50;95.30;;;;;;2082214;28;20064;-87
2022/01/17 05:09:00;;;;;;;4.80;0.77;;;5.50;95.30;;;;;;2082302;28;20392;-87
2022/01/17 05:10:04;;;;;;;2.58;0.57;;;5.50;95.30;;;;;;2090557;28;20383;-87
2022/01/17 05:11:05;;;;;;;4.45;0.90;;;5.50;95.30;;;;;;2090491;28;20521;-87
2022/01/17 05:12:06;;;;;;;5.15;0.82;;;5.50;95.30;;;;;;2082173;28;20033;-87
2022/01/17 05:13:08;;;;;;;4.65;0.85;;;5.50;95.30;;;;;;2081230;28;20044;-87
2022/01/17 05:14:10;;;;;;;4.90;0.75;;;5.50;95.30;;;;;;2080443;28;20021;-87
2022/01/17 05:15:36;;;;;;;5.00;0.70;;;5.50;95.30;;;;;;2068991;28;20408;-88
2022/01/17 05:16:43;;;;;;;3.10;0.55;;;5.50;95.30;;;;;;2079897;28;20393;-87
2022/01/17 05:17:56;;;;;;;4.10;0.77;;;5.50;95.50;;;;;;2090347;28;20072;-87
2022/01/17 05:20:16;;;;;;;5.97;1.20;;;5.40;95.60;;;;;;2094724;28;20086;-87
2022/01/17 05:21:17;;;;;;;5.60;0.98;;;5.40;95.40;;;;;;2097376;28;20165;-86
2022/01/17 05:22:19;;;;;;;7.10;1.08;;;5.30;95.40;;;;;;2096120;28;20044;-87
2022/01/17 05:23:19;;;;;;;4.03;0.70;;;5.30;95.40;;;;;;2082776;28;20435;-87
2022/01/17 05:24:20;;;;;;;3.53;0.70;;;5.30;95.70;;;;;;2088457;28;20054;-87
2022/01/17 05:25:21;;;;;;;2.55;0.88;;;5.30;95.50;;;;;;2088727;28;20100;-86
2022/01/17 05:26:22;;;;;;;3.33;0.73;;;5.30;95.50;;;;;;2085549;28;20119;-87
2022/01/17 05:27:23;;;;;;;5.15;1.10;;;5.30;95.50;;;;;;2090139;28;20112;-86
2022/01/17 05:28:24;;;;;;;3.28;0.70;;;5.30;95.50;;;;;;2089840;28;20395;-88
2022/01/17 05:29:25;;;;;;;5.20;0.90;;;5.20;95.50;;;;;;2089477;28;20120;-87
2022/01/17 05:30:26;;;;;;;3.50;0.70;;;5.20;95.60;;;;;;2080942;28;20028;-88
2022/01/17 05:31:27;;;;;;;5.03;0.90;;;5.20;95.60;;;;;;2081803;28;20483;-87
2022/01/17 05:32:27;;;;;;;5.47;0.85;;;5.20;95.60;;;;;;2090491;28;20033;-87
2022/01/17 05:33:30;;;;;;;3.50;0.70;;;5.20;95.60;;;;;;2098504;28;20032;-87
2022/01/17 05:34:34;;;;;;;3.20;0.60;;;5.20;95.70;;;;;;2089634;28;20037;-87
2022/01/17 05:35:35;;;;;;;2.78;0.57;;;5.10;95.70;;;;;;2080702;28;20080;-87
2022/01/17 05:36:36;;;;;;;3.40;0.77;;;5.10;95.90;;;;;;2090129;28;20044;-87
2022/01/17 05:37:37;;;;;;;2.63;0.80;;;5.10;95.70;;;;;;2091109;28;20029;-86
2022/01/17 05:38:37;;;;;;;2.95;0.70;;;5.10;95.70;;;;;;2092870;28;20036;-87
2022/01/17 05:39:38;;;;;;;5.82;1.25;;;5.10;95.80;;;;;;2101656;28;20051;-87
2022/01/17 05:40:39;;;;;;;5.32;0.90;;;5.00;95.70;;;;;;2091921;28;20174;-87